sensor_id;sensor_type;location;lat;lon;timestamp;pressure;altitude;pressure_sealevel;temperature;humidity
42105;BME280;68365;51.472;5.712;2023-04-30T00:01:59;102114.28;;;15.79;100.00
42105;BME280;68365;51.472;5.712;2023-04-30T00:04:25;102100.53;;;15.77;100.00
42105;BME280;68365;51.472;5.712;2023-04-30T00:06:51;102108.22;;;15.78;100.00
42105;BME280;68365;51.472;5.712;2023-04-30T00:09:16;102113.47;;;15.78;100.00
42105;BME280;68365;51.472;5.712;2023-04-30T00:11:42;102113.81;;;15.75;100.00
42105;BME280;68365;51.472;5.712;2023-04-30T00:14:08;102111.84;;;15.77;100.00
42105;BME280;68365;51.472;5.712;2023-04-30T00:16:34;102102.50;;;15.75;100.00
42105;BME280;68365;51.472;5.712;2023-04-30T00:19:00;102108.56;;;15.75;100.00
42105;BME280;68365;51.472;5.712;2023-04-30T00:21:26;102105.09;;;15.75;100.00
42105;BME280;68365;51.472;5.712;2023-04-30T00:23:52;102114.75;;;15.74;100.00
42105;BME280;68365;51.472;5.712;2023-04-30T00:26:18;102112.97;;;15.75;100.00
42105;BME280;68365;51.472;5.712;2023-04-30T00:28:59;102107.91;;;15.73;100.00
42105;BME280;68365;51.472;5.712;2023-04-30T00:31:25;102113.16;;;15.73;100.00
42105;BME280;68365;51.472;5.712;2023-04-30T00:33:50;102120.16;;;15.73;100.00
42105;BME280;68365;51.472;5.712;2023-04-30T00:36:16;102115.75;;;15.73;100.00
42105;BME280;68365;51.472;5.712;2023-04-30T00:38:42;102115.06;;;15.71;100.00
42105;BME280;68365;51.472;5.712;2023-04-30T00:41:08;102121.13;;;15.72;100.00
42105;BME280;68365;51.472;5.712;2023-04-30T00:43:34;102122.06;;;15.70;100.00
42105;BME280;68365;51.472;5.712;2023-04-30T00:46:00;102127.31;;;15.70;100.00
42105;BME280;68365;51.472;5.712;2023-04-30T00:48:28;102123.88;;;15.70;100.00
42105;BME280;68365;51.472;5.712;2023-04-30T00:50:54;102123.06;;;15.69;100.00
42105;BME280;68365;51.472;5.712;2023-04-30T00:53:20;102118.81;;;15.68;100.00
42105;BME280;68365;51.472;5.712;2023-04-30T00:55:47;102123.06;;;15.69;100.00
42105;BME280;68365;51.472;5.712;2023-04-30T00:58:13;102119.66;;;15.69;100.00
42105;BME280;68365;51.472;5.712;2023-04-30T01:00:41;102112.91;;;15.66;100.00
42105;BME280;68365;51.472;5.712;2023-04-30T01:03:14;102113.75;;;15.67;100.00
42105;BME280;68365;51.472;5.712;2023-04-30T01:05:41;102117.31;;;15.66;100.00
42105;BME280;68365;51.472;5.712;2023-04-30T01:08:08;102120.59;;;15.68;100.00
42105;BME280;68365;51.472;5.712;2023-04-30T01:10:51;102117.19;;;15.67;100.00
42105;BME280;68365;51.472;5.712;2023-04-30T01:13:33;102119.13;;;15.65;100.00
42105;BME280;68365;51.472;5.712;2023-04-30T01:18:45;102104.25;;;15.66;100.00
42105;BME280;68365;51.472;5.712;2023-04-30T01:21:13;102104.38;;;15.64;100.00
42105;BME280;68365;51.472;5.712;2023-04-30T01:27:14;102104.56;;;15.63;100.00
42105;BME280;68365;51.472;5.712;2023-04-30T01:29:44;102104.56;;;15.63;100.00
42105;BME280;68365;51.472;5.712;2023-04-30T01:32:10;102107.19;;;15.63;100.00
42105;BME280;68365;51.472;5.712;2023-04-30T01:34:36;102098.69;;;15.61;100.00
42105;BME280;68365;51.472;5.712;2023-04-30T01:37:35;102105.69;;;15.60;100.00
42105;BME280;68365;51.472;5.712;2023-04-30T01:40:36;102096.88;;;15.61;100.00
42105;BME280;68365;51.472;5.712;2023-04-30T01:46:23;102104.72;;;15.61;100.00
42105;BME280;68365;51.472;5.712;2023-04-30T01:52:51;102098.16;;;15.57;100.00
42105;BME280;68365;51.472;5.712;2023-04-30T01:55:43;102105.03;;;15.58;100.00
42105;BME280;68365;51.472;5.712;2023-04-30T01:58:12;102100.78;;;15.57;100.00
42105;BME280;68365;51.472;5.712;2023-04-30T02:00:39;102108.63;;;15.57;100.00
42105;BME280;68365;51.472;5.712;2023-04-30T02:03:05;102110.44;;;15.57;100.00
42105;BME280;68365;51.472;5.712;2023-04-30T02:05:32;102105.34;;;15.55;100.00
42105;BME280;68365;51.472;5.712;2023-04-30T02:07:58;102111.56;;;15.54;100.00
42105;BME280;68365;51.472;5.712;2023-04-30T02:10:25;102112.22;;;15.56;100.00
42105;BME280;68365;51.472;5.712;2023-04-30T02:12:52;102109.78;;;15.55;100.00
42105;BME280;68365;51.472;5.712;2023-04-30T02:15:18;102107.16;;;15.55;100.00
42105;BME280;68365;51.472;5.712;2023-04-30T02:17:44;102106.31;;;15.54;100.00
42105;BME280;68365;51.472;5.712;2023-04-30T02:20:10;102114.16;;;15.54;100.00
42105;BME280;68365;51.472;5.712;2023-04-30T02:22:36;102109.78;;;15.55;100.00
42105;BME280;68365;51.472;5.712;2023-04-30T02:25:02;102109.94;;;15.53;100.00
42105;BME280;68365;51.472;5.712;2023-04-30T02:27:31;102109.13;;;15.53;100.00
42105;BME280;68365;51.472;5.712;2023-04-30T02:29:58;102118.75;;;15.52;100.00
42105;BME280;68365;51.472;5.712;2023-04-30T02:32:24;102116.13;;;15.52;100.00
42105;BME280;68365;51.472;5.712;2023-04-30T02:34:50;102111.75;;;15.53;100.00
42105;BME280;68365;51.472;5.712;2023-04-30T02:37:16;102110.09;;;15.52;100.00
42105;BME280;68365;51.472;5.712;2023-04-30T02:39:42;102109.13;;;15.53;100.00
42105;BME280;68365;51.472;5.712;2023-04-30T02:42:07;102113.69;;;15.51;100.00
42105;BME280;68365;51.472;5.712;2023-04-30T02:44:34;102105.84;;;15.51;100.00
42105;BME280;68365;51.472;5.712;2023-04-30T02:47:00;102111.06;;;15.51;100.00
42105;BME280;68365;51.472;5.712;2023-04-30T02:49:27;102109.56;;;15.48;100.00
42105;BME280;68365;51.472;5.712;2023-04-30T02:51:54;102103.22;;;15.51;100.00
42105;BME280;68365;51.472;5.712;2023-04-30T02:54:19;102103.53;;;15.47;100.00
42105;BME280;68365;51.472;5.712;2023-04-30T02:56:45;102104.50;;;15.46;100.00
42105;BME280;68365;51.472;5.712;2023-04-30T02:59:12;102106.13;;;15.47;100.00
42105;BME280;68365;51.472;5.712;2023-04-30T03:01:37;102108.91;;;15.46;100.00
42105;BME280;68365;51.472;5.712;2023-04-30T03:04:03;102108.75;;;15.47;100.00
42105;BME280;68365;51.472;5.712;2023-04-30T03:06:31;102103.53;;;15.47;100.00
42105;BME280;68365;51.472;5.712;2023-04-30T03:08:57;102104.50;;;15.46;100.00
42105;BME280;68365;51.472;5.712;2023-04-30T03:11:23;102105.31;;;15.47;100.00
42105;BME280;68365;51.472;5.712;2023-04-30T03:13:49;102103.69;;;15.46;100.00
42105;BME280;68365;51.472;5.712;2023-04-30T03:16:19;102098.44;;;15.46;100.00
42105;BME280;68365;51.472;5.712;2023-04-30T03:18:47;102102.84;;;15.45;100.00
42105;BME280;68365;51.472;5.712;2023-04-30T03:21:13;102104.66;;;15.45;100.00
42105;BME280;68365;51.472;5.712;2023-04-30T03:23:39;102097.78;;;15.44;100.00
42105;BME280;68365;51.472;5.712;2023-04-30T03:26:05;102098.78;;;15.43;100.00
42105;BME280;68365;51.472;5.712;2023-04-30T03:28:31;102095.34;;;15.42;100.00
42105;BME280;68365;51.472;5.712;2023-04-30T03:30:57;102096.16;;;15.43;100.00
42105;BME280;68365;51.472;5.712;2023-04-30T03:33:24;102089.25;;;15.42;100.00
42105;BME280;68365;51.472;5.712;2023-04-30T03:35:49;102092.72;;;15.42;100.00
42105;BME280;68365;51.472;5.712;2023-04-30T03:38:16;102091.06;;;15.41;100.00
42105;BME280;68365;51.472;5.712;2023-04-30T03:40:42;102097.28;;;15.40;100.00
42105;BME280;68365;51.472;5.712;2023-04-30T03:43:08;102090.25;;;15.41;100.00
42105;BME280;68365;51.472;5.712;2023-04-30T03:45:34;102089.59;;;15.39;100.00
42105;BME280;68365;51.472;5.712;2023-04-30T03:48:00;102091.22;;;15.40;100.00
42105;BME280;68365;51.472;5.712;2023-04-30T03:50:25;102093.84;;;15.40;100.00
42105;BME280;68365;51.472;5.712;2023-04-30T03:52:51;102092.22;;;15.39;100.00
42105;BME280;68365;51.472;5.712;2023-04-30T03:55:17;102103.50;;;15.39;100.00
42105;BME280;68365;51.472;5.712;2023-04-30T03:57:43;102110.69;;;15.37;100.00
42105;BME280;68365;51.472;5.712;2023-04-30T04:00:10;102106.09;;;15.39;100.00
42105;BME280;68365;51.472;5.712;2023-04-30T04:02:38;102106.25;;;15.38;100.00
42105;BME280;68365;51.472;5.712;2023-04-30T04:05:04;102114.09;;;15.38;100.00
42105;BME280;68365;51.472;5.712;2023-04-30T04:07:30;102109.06;;;15.36;100.00
42105;BME280;68365;51.472;5.712;2023-04-30T04:09:56;102113.16;;;15.39;100.00
42105;BME280;68365;51.472;5.712;2023-04-30T04:12:21;102119.34;;;15.38;100.00
42105;BME280;68365;51.472;5.712;2023-04-30T04:14:48;102118.53;;;15.37;100.00
42105;BME280;68365;51.472;5.712;2023-04-30T04:17:14;102109.06;;;15.36;100.00
42105;BME280;68365;51.472;5.712;2023-04-30T04:19:40;102120.34;;;15.37;100.00
42105;BME280;68365;51.472;5.712;2023-04-30T04:22:06;102124.91;;;15.35;100.00
42105;BME280;68365;51.472;5.712;2023-04-30T04:24:32;102129.13;;;15.36;100.00
42105;BME280;68365;51.472;5.712;2023-04-30T04:26:58;102129.13;;;15.36;100.00
42105;BME280;68365;51.472;5.712;2023-04-30T04:29:24;102122.94;;;15.37;100.00
42105;BME280;68365;51.472;5.712;2023-04-30T04:31:50;102129.13;;;15.36;100.00
42105;BME280;68365;51.472;5.712;2023-04-30T04:34:16;102129.31;;;15.34;100.00
42105;BME280;68365;51.472;5.712;2023-04-30T04:36:44;102130.94;;;15.35;100.00
42105;BME280;68365;51.472;5.712;2023-04-30T04:39:10;102126.53;;;15.36;100.00
42105;BME280;68365;51.472;5.712;2023-04-30T04:41:36;102128.31;;;15.35;100.00
42105;BME280;68365;51.472;5.712;2023-04-30T04:44:02;102132.59;;;15.36;100.00
42105;BME280;68365;51.472;5.712;2023-04-30T04:46:30;102138.16;;;15.41;100.00
42105;BME280;68365;51.472;5.712;2023-04-30T04:48:57;102134.22;;;15.37;100.00
42105;BME280;68365;51.472;5.712;2023-04-30T04:51:23;102132.41;;;15.38;100.00
42105;BME280;68365;51.472;5.712;2023-04-30T04:53:49;102139.59;;;15.36;100.00
42105;BME280;68365;51.472;5.712;2023-04-30T04:56:15;102137.00;;;15.36;100.00
42105;BME280;68365;51.472;5.712;2023-04-30T04:58:43;102141.25;;;15.37;100.00
42105;BME280;68365;51.472;5.712;2023-04-30T05:01:10;102143.88;;;15.37;100.00
42105;BME280;68365;51.472;5.712;2023-04-30T05:03:35;102140.94;;;15.40;100.00
42105;BME280;68365;51.472;5.712;2023-04-30T05:06:02;102148.63;;;15.41;100.00
42105;BME280;68365;51.472;5.712;2023-04-30T05:08:28;102147.81;;;15.41;100.00
42105;BME280;68365;51.472;5.712;2023-04-30T05:10:54;102152.38;;;15.39;100.00
42105;BME280;68365;51.472;5.712;2023-04-30T05:13:20;102149.44;;;15.42;100.00
42105;BME280;68365;51.472;5.712;2023-04-30T05:15:49;102149.31;;;15.43;100.00
42105;BME280;68365;51.472;5.712;2023-04-30T05:18:15;102148.63;;;15.41;100.00
42105;BME280;68365;51.472;5.712;2023-04-30T05:20:41;102149.44;;;15.42;100.00
42105;BME280;68365;51.472;5.712;2023-04-30T05:23:07;102148.81;;;15.48;100.00
42105;BME280;68365;51.472;5.712;2023-04-30T05:25:34;102153.44;;;15.54;100.00
42105;BME280;68365;51.472;5.712;2023-04-30T05:28:00;102148.03;;;15.56;100.00
42105;BME280;68365;51.472;5.712;2023-04-30T05:30:26;102145.78;;;15.61;100.00
42105;BME280;68365;51.472;5.712;2023-04-30T05:32:52;102141.84;;;15.57;100.00
42105;BME280;68365;51.472;5.712;2023-04-30T05:35:18;102141.34;;;15.53;100.00
42105;BME280;68365;51.472;5.712;2023-04-30T05:37:45;102145.91;;;15.51;100.00
42105;BME280;68365;51.472;5.712;2023-04-30T05:40:11;102146.06;;;15.49;100.00
42105;BME280;68365;51.472;5.712;2023-04-30T05:42:37;102143.28;;;15.51;100.00
42105;BME280;68365;51.472;5.712;2023-04-30T05:45:06;102142.97;;;15.54;100.00
42105;BME280;68365;51.472;5.712;2023-04-30T05:47:35;102139.38;;;15.55;100.00
42105;BME280;68365;51.472;5.712;2023-04-30T05:50:01;102145.28;;;15.57;100.00
42105;BME280;68365;51.472;5.712;2023-04-30T05:52:27;102145.13;;;15.59;100.00
42105;BME280;68365;51.472;5.712;2023-04-30T05:54:52;102147.56;;;15.60;100.00
42105;BME280;68365;51.472;5.712;2023-04-30T05:57:18;102142.31;;;15.60;100.00
42105;BME280;68365;51.472;5.712;2023-04-30T05:59:44;102147.25;;;15.63;100.00
42105;BME280;68365;51.472;5.712;2023-04-30T06:02:10;102147.25;;;15.63;100.00
42105;BME280;68365;51.472;5.712;2023-04-30T06:04:36;102150.69;;;15.64;100.00
42105;BME280;68365;51.472;5.712;2023-04-30T06:07:02;102135.97;;;15.63;100.00
42105;BME280;68365;51.472;5.712;2023-04-30T06:09:27;102141.03;;;15.64;100.00
42105;BME280;68365;51.472;5.712;2023-04-30T06:11:53;102140.06;;;15.65;100.00
42105;BME280;68365;51.472;5.712;2023-04-30T06:14:20;102140.88;;;15.66;100.00
42105;BME280;68365;51.472;5.712;2023-04-30T06:16:47;102142.53;;;15.67;100.00
42105;BME280;68365;51.472;5.712;2023-04-30T06:19:13;102142.34;;;15.68;100.00
42105;BME280;68365;51.472;5.712;2023-04-30T06:21:39;102144.00;;;15.69;100.00
42105;BME280;68365;51.472;5.712;2023-04-30T06:24:08;102136.00;;;15.71;100.00
42105;BME280;68365;51.472;5.712;2023-04-30T06:26:34;102141.94;;;15.73;100.00
42105;BME280;68365;51.472;5.712;2023-04-30T06:29:00;102135.72;;;15.74;100.00
42105;BME280;68365;51.472;5.712;2023-04-30T06:31:26;102136.53;;;15.75;100.00
42105;BME280;68365;51.472;5.712;2023-04-30T06:33:52;102131.94;;;15.77;100.00
42105;BME280;68365;51.472;5.712;2023-04-30T06:36:17;102137.84;;;15.79;100.00
42105;BME280;68365;51.472;5.712;2023-04-30T06:38:45;102135.22;;;15.79;100.00
42105;BME280;68365;51.472;5.712;2023-04-30T06:41:12;102135.88;;;15.81;100.00
42105;BME280;68365;51.472;5.712;2023-04-30T06:43:38;102129.53;;;15.83;100.00
42105;BME280;68365;51.472;5.712;2023-04-30T06:46:03;102129.34;;;15.85;100.00
42105;BME280;68365;51.472;5.712;2023-04-30T06:48:31;102133.63;;;15.86;100.00
42105;BME280;68365;51.472;5.712;2023-04-30T06:50:57;102134.44;;;15.86;100.00
42105;BME280;68365;51.472;5.712;2023-04-30T06:53:24;102135.25;;;15.87;100.00
42105;BME280;68365;51.472;5.712;2023-04-30T06:55:50;102141.31;;;15.87;100.00
42105;BME280;68365;51.472;5.712;2023-04-30T06:58:16;102145.56;;;15.88;100.00
42105;BME280;68365;51.472;5.712;2023-04-30T07:00:43;102144.75;;;15.88;100.00
42105;BME280;68365;51.472;5.712;2023-04-30T07:03:09;102139.53;;;15.88;100.00
42105;BME280;68365;51.472;5.712;2023-04-30T07:05:35;102143.63;;;15.91;100.00
42105;BME280;68365;51.472;5.712;2023-04-30T07:08:01;102142.66;;;15.92;100.00
42105;BME280;68365;51.472;5.712;2023-04-30T07:10:29;102147.03;;;15.91;100.00
42105;BME280;68365;51.472;5.712;2023-04-30T07:12:55;102141.66;;;15.93;100.00
42105;BME280;68365;51.472;5.712;2023-04-30T07:15:21;102148.69;;;15.92;100.00
42105;BME280;68365;51.472;5.712;2023-04-30T07:17:47;102142.47;;;15.93;100.00
42105;BME280;68365;51.472;5.712;2023-04-30T07:20:13;102138.22;;;15.92;100.00
42105;BME280;68365;51.472;5.712;2023-04-30T07:22:40;102140.69;;;15.94;100.00
42105;BME280;68365;51.472;5.712;2023-04-30T07:25:09;102130.72;;;16.05;100.00
42105;BME280;68365;51.472;5.712;2023-04-30T07:27:35;102136.94;;;16.04;100.00
42105;BME280;68365;51.472;5.712;2023-04-30T07:30:01;102137.91;;;16.03;100.00
42105;BME280;68365;51.472;5.712;2023-04-30T07:32:27;102135.94;;;16.05;100.00
42105;BME280;68365;51.472;5.712;2023-04-30T07:34:53;102129.41;;;16.09;100.00
42105;BME280;68365;51.472;5.712;2023-04-30T07:37:19;102138.25;;;16.08;100.00
42105;BME280;68365;51.472;5.712;2023-04-30T07:39:45;102131.06;;;16.11;100.00
42105;BME280;68365;51.472;5.712;2023-04-30T07:42:10;102129.91;;;16.13;100.00
42105;BME280;68365;51.472;5.712;2023-04-30T07:44:36;102129.09;;;16.13;100.00
42105;BME280;68365;51.472;5.712;2023-04-30T07:47:02;102125.66;;;16.12;100.00
42105;BME280;68365;51.472;5.712;2023-04-30T07:49:29;102124.00;;;16.11;100.00
42105;BME280;68365;51.472;5.712;2023-04-30T07:51:55;102121.41;;;16.11;100.00
42105;BME280;68365;51.472;5.712;2023-04-30T07:54:21;102124.00;;;16.11;100.00
42105;BME280;68365;51.472;5.712;2023-04-30T07:56:46;102124.16;;;16.09;100.00
42105;BME280;68365;51.472;5.712;2023-04-30T07:59:13;102137.09;;;16.11;100.00
42105;BME280;68365;51.472;5.712;2023-04-30T08:01:39;102142.84;;;16.15;100.00
42105;BME280;68365;51.472;5.712;2023-04-30T08:04:05;102145.63;;;16.13;100.00
42105;BME280;68365;51.472;5.712;2023-04-30T08:06:32;102135.81;;;16.15;100.00
42105;BME280;68365;51.472;5.712;2023-04-30T08:08:57;102136.47;;;16.17;100.00
42105;BME280;68365;51.472;5.712;2023-04-30T08:11:23;102142.84;;;16.15;100.00
42105;BME280;68365;51.472;5.712;2023-04-30T08:13:49;102140.06;;;16.16;100.00
42105;BME280;68365;51.472;5.712;2023-04-30T08:16:15;102145.16;;;16.26;100.00
42105;BME280;68365;51.472;5.712;2023-04-30T08:18:41;102142.72;;;16.24;100.00
42105;BME280;68365;51.472;5.712;2023-04-30T08:21:12;102142.22;;;16.21;100.00
42105;BME280;68365;51.472;5.712;2023-04-30T08:23:38;102142.22;;;16.21;100.00
42105;BME280;68365;51.472;5.712;2023-04-30T08:26:04;102147.09;;;16.24;100.00
42105;BME280;68365;51.472;5.712;2023-04-30T08:28:30;102142.38;;;16.27;100.00
42105;BME280;68365;51.472;5.712;2023-04-30T08:30:56;102146.94;;;16.25;100.00
42105;BME280;68365;51.472;5.712;2023-04-30T08:33:21;102146.13;;;16.25;100.00
42105;BME280;68365;51.472;5.712;2023-04-30T08:35:47;102142.72;;;16.24;100.00
42105;BME280;68365;51.472;5.712;2023-04-30T08:38:13;102143.69;;;16.23;100.00
42105;BME280;68365;51.472;5.712;2023-04-30T08:40:39;102138.44;;;16.23;100.00
42105;BME280;68365;51.472;5.712;2023-04-30T08:43:08;102134.00;;;16.24;100.00
42105;BME280;68365;51.472;5.712;2023-04-30T08:45:35;102132.41;;;16.31;100.00
42105;BME280;68365;51.472;5.712;2023-04-30T08:48:10;102134.50;;;16.27;100.00
42105;BME280;68365;51.472;5.712;2023-04-30T08:50:38;102126.00;;;16.25;100.00
42105;BME280;68365;51.472;5.712;2023-04-30T08:53:05;102117.31;;;16.25;100.00
42105;BME280;68365;51.472;5.712;2023-04-30T08:55:36;102123.72;;;16.22;100.00
42105;BME280;68365;51.472;5.712;2023-04-30T08:58:04;102123.22;;;16.19;100.00
42105;BME280;68365;51.472;5.712;2023-04-30T09:00:32;102120.09;;;16.15;100.00
42105;BME280;68365;51.472;5.712;2023-04-30T09:03:00;102116.66;;;16.15;100.00
42105;BME280;68365;51.472;5.712;2023-04-30T09:05:25;102123.38;;;16.17;100.00
42105;BME280;68365;51.472;5.712;2023-04-30T09:07:51;102121.09;;;16.14;100.00
42105;BME280;68365;51.472;5.712;2023-04-30T09:10:19;102124.50;;;16.15;100.00
42105;BME280;68365;51.472;5.712;2023-04-30T09:13:07;102122.72;;;16.15;100.00
42105;BME280;68365;51.472;5.712;2023-04-30T09:15:36;102120.09;;;16.15;100.00
42105;BME280;68365;51.472;5.712;2023-04-30T09:18:16;102117.63;;;16.14;100.00
42105;BME280;68365;51.472;5.712;2023-04-30T09:21:00;102111.56;;;16.13;100.00
42105;BME280;68365;51.472;5.712;2023-04-30T09:23:30;102118.47;;;16.14;100.00
42105;BME280;68365;51.472;5.712;2023-04-30T09:25:59;102116.16;;;16.11;100.00
42105;BME280;68365;51.472;5.712;2023-04-30T09:28:25;102119.44;;;16.13;100.00
42105;BME280;68365;51.472;5.712;2023-04-30T09:30:56;102111.56;;;16.13;100.00
42105;BME280;68365;51.472;5.712;2023-04-30T09:33:22;102111.06;;;16.09;100.00
42105;BME280;68365;51.472;5.712;2023-04-30T09:35:49;102113.53;;;16.11;100.00
42105;BME280;68365;51.472;5.712;2023-04-30T09:38:30;102116.16;;;16.11;100.00
42105;BME280;68365;51.472;5.712;2023-04-30T09:41:00;102102.25;;;16.11;100.00
42105;BME280;68365;51.472;5.712;2023-04-30T09:43:30;102116.97;;;16.12;100.00
42105;BME280;68365;51.472;5.712;2023-04-30T09:45:58;102112.88;;;16.09;100.00
42105;BME280;68365;51.472;5.712;2023-04-30T09:48:25;102110.91;;;16.11;100.00
42105;BME280;68365;51.472;5.712;2023-04-30T09:50:54;102106.69;;;16.10;100.00
42105;BME280;68365;51.472;5.712;2023-04-30T09:53:20;102109.28;;;16.10;100.00
42105;BME280;68365;51.472;5.712;2023-04-30T09:55:50;102112.72;;;16.11;100.00
42105;BME280;68365;51.472;5.712;2023-04-30T09:58:17;102099.63;;;16.11;100.00
42105;BME280;68365;51.472;5.712;2023-04-30T10:00:49;102095.34;;;16.09;100.00
42105;BME280;68365;51.472;5.712;2023-04-30T10:03:17;102102.25;;;16.11;100.00
42105;BME280;68365;51.472;5.712;2023-04-30T10:05:48;102095.03;;;16.13;100.00
42105;BME280;68365;51.472;5.712;2023-04-30T10:08:26;102097.66;;;16.13;100.00
42105;BME280;68365;51.472;5.712;2023-04-30T10:11:06;102100.13;;;16.14;100.00
42105;BME280;68365;51.472;5.712;2023-04-30T10:14:00;102097.66;;;16.13;100.00
42105;BME280;68365;51.472;5.712;2023-04-30T10:16:46;102095.84;;;16.13;100.00
42105;BME280;68365;51.472;5.712;2023-04-30T10:19:26;102089.81;;;16.13;100.00
42105;BME280;68365;51.472;5.712;2023-04-30T10:21:55;102092.28;;;16.14;100.00
42105;BME280;68365;51.472;5.712;2023-04-30T10:24:21;102089.81;;;16.13;100.00
42105;BME280;68365;51.472;5.712;2023-04-30T10:26:47;102085.88;;;16.17;100.00
42105;BME280;68365;51.472;5.712;2023-04-30T10:29:15;102093.91;;;16.15;100.00
42105;BME280;68365;51.472;5.712;2023-04-30T10:31:47;102080.94;;;16.14;100.00
42105;BME280;68365;51.472;5.712;2023-04-30T10:37:06;102073.09;;;16.14;100.00
42105;BME280;68365;51.472;5.712;2023-04-30T10:39:36;102078.03;;;16.17;100.00
42105;BME280;68365;51.472;5.712;2023-04-30T10:42:05;102076.38;;;16.16;100.00
42105;BME280;68365;51.472;5.712;2023-04-30T10:44:38;102070.47;;;16.14;100.00
42105;BME280;68365;51.472;5.712;2023-04-30T10:47:05;102069.66;;;16.13;100.00
42105;BME280;68365;51.472;5.712;2023-04-30T10:49:32;102066.88;;;16.15;100.00
42105;BME280;68365;51.472;5.712;2023-04-30T10:52:03;102069.34;;;16.16;100.00
42105;BME280;68365;51.472;5.712;2023-04-30T10:54:36;102064.91;;;16.17;100.00
42105;BME280;68365;51.472;5.712;2023-04-30T10:57:16;102051.81;;;16.17;100.00
42105;BME280;68365;51.472;5.712;2023-04-30T11:00:17;102056.06;;;16.18;100.00
42105;BME280;68365;51.472;5.712;2023-04-30T11:02:44;102054.28;;;16.18;100.00
42105;BME280;68365;51.472;5.712;2023-04-30T11:05:16;102042.00;;;16.19;100.00
42105;BME280;68365;51.472;5.712;2023-04-30T11:07:56;102042.66;;;16.21;100.00
42105;BME280;68365;51.472;5.712;2023-04-30T11:10:25;102035.75;;;16.20;100.00
42105;BME280;68365;51.472;5.712;2023-04-30T11:12:53;102037.25;;;16.22;100.00
42105;BME280;68365;51.472;5.712;2023-04-30T11:15:24;102038.06;;;16.23;100.00
42105;BME280;68365;51.472;5.712;2023-04-30T11:17:50;102033.47;;;16.25;100.00
42105;BME280;68365;51.472;5.712;2023-04-30T11:20:22;102023.00;;;16.25;100.00
42105;BME280;68365;51.472;5.712;2023-04-30T11:23:16;102023.00;;;16.25;100.00
42105;BME280;68365;51.472;5.712;2023-04-30T11:25:45;102027.25;;;16.26;100.00
42105;BME280;68365;51.472;5.712;2023-04-30T11:28:19;102013.03;;;16.28;100.00
42105;BME280;68365;51.472;5.712;2023-04-30T11:30:57;102017.41;;;16.28;100.00
42105;BME280;68365;51.472;5.712;2023-04-30T11:33:28;102012.81;;;16.30;100.00
42105;BME280;68365;51.472;5.712;2023-04-30T11:35:56;102003.19;;;16.31;100.00
42105;BME280;68365;51.472;5.712;2023-04-30T11:38:38;102002.19;;;16.32;100.00
42105;BME280;68365;51.472;5.712;2023-04-30T11:41:05;102001.22;;;16.33;100.00
42105;BME280;68365;51.472;5.712;2023-04-30T11:43:32;102002.69;;;16.35;100.00
42105;BME280;68365;51.472;5.712;2023-04-30T11:46:05;101994.47;;;16.38;100.00
42105;BME280;68365;51.472;5.712;2023-04-30T11:48:45;101990.25;;;16.37;100.00
42105;BME280;68365;51.472;5.712;2023-04-30T11:53:41;101995.13;;;16.40;100.00
42105;BME280;68365;51.472;5.712;2023-04-30T11:56:07;101992.03;;;16.37;100.00
42105;BME280;68365;51.472;5.712;2023-04-30T11:58:35;101995.13;;;16.40;100.00
42105;BME280;68365;51.472;5.712;2023-04-30T12:01:04;101995.31;;;16.39;100.00
42105;BME280;68365;51.472;5.712;2023-04-30T12:03:31;101999.06;;;16.36;100.00
42105;BME280;68365;51.472;5.712;2023-04-30T12:05:57;101988.94;;;16.33;100.00
42105;BME280;68365;51.472;5.712;2023-04-30T12:08:23;101982.22;;;16.31;100.00
42105;BME280;68365;51.472;5.712;2023-04-30T12:10:48;101978.59;;;16.32;100.00
42105;BME280;68365;51.472;5.712;2023-04-30T12:13:14;101981.56;;;16.37;100.00
42105;BME280;68365;51.472;5.712;2023-04-30T12:15:59;101984.84;;;16.39;100.00
42105;BME280;68365;51.472;5.712;2023-04-30T12:18:25;101973.19;;;16.41;100.00
42105;BME280;68365;51.472;5.712;2023-04-30T12:20:52;101981.06;;;16.41;100.00
42105;BME280;68365;51.472;5.712;2023-04-30T12:23:19;101975.66;;;16.43;100.00
42105;BME280;68365;51.472;5.712;2023-04-30T12:25:45;101969.56;;;16.42;100.00
42105;BME280;68365;51.472;5.712;2023-04-30T12:28:12;101974.50;;;16.45;100.00
42105;BME280;68365;51.472;5.712;2023-04-30T12:30:38;101970.88;;;16.46;100.00
42105;BME280;68365;51.472;5.712;2023-04-30T12:33:04;101970.41;;;16.43;100.00
42105;BME280;68365;51.472;5.712;2023-04-30T12:35:30;101972.69;;;16.46;100.00
42105;BME280;68365;51.472;5.712;2023-04-30T12:38:05;101963.19;;;16.45;100.00
42105;BME280;68365;51.472;5.712;2023-04-30T12:40:31;101960.38;;;16.46;100.00
42105;BME280;68365;51.472;5.712;2023-04-30T12:43:02;101952.38;;;16.48;100.00
42105;BME280;68365;51.472;5.712;2023-04-30T12:45:55;101953.38;;;16.47;100.00
42105;BME280;68365;51.472;5.712;2023-04-30T12:48:23;101954.34;;;16.46;100.00
42105;BME280;68365;51.472;5.712;2023-04-30T12:50:59;101956.00;;;16.47;100.00
42105;BME280;68365;51.472;5.712;2023-04-30T12:53:26;101950.75;;;16.47;100.00
42105;BME280;68365;51.472;5.712;2023-04-30T12:56:11;101953.66;;;16.52;100.00
42105;BME280;68365;51.472;5.712;2023-04-30T12:58:41;101945.16;;;16.50;100.00
42105;BME280;68365;51.472;5.712;2023-04-30T13:01:20;101941.56;;;16.51;100.00
42105;BME280;68365;51.472;5.712;2023-04-30T13:03:49;101942.69;;;16.48;100.00
42105;BME280;68365;51.472;5.712;2023-04-30T13:06:15;101934.84;;;16.48;100.00